Sincerity Ace — 3FFD7 — position and weather

sailwx.info

Track history (hours):
 
Tides and Currents Weather Stations Pressure Air Temp Water Temp Dewpoint Dewpoint Depression Visibility Wind Speed Wind Dir Waves Ship Positions

Sincerity Ace

Last reported at 2017-Apr-20 11:24 UTC. Time now 2017-Apr-26 19:30 UTC.
Position N 23°44' W 119°55'.

Length 200 m; draft 9.3 m.

Type: Cargo ship. MMSI: 351690000.

Date/timePositionNaut miles runAvg speedWind from/ knotsBaromVisibWave heightAir tempDewpointWater temp
2017-Apr-20 11:24N 23°44' W 119°55'614.7
2017-Apr-20 11:00N 23°47' W 120°01'714.6
2017-Apr-20 10:30N 23°50' W 120°08'714.5
2017-Apr-20 10:00N 23°53' W 120°15'714.4
2017-Apr-20 09:30N 23°57' W 120°22'914.3
2017-Apr-20 08:51N 24°01' W 120°31'514.3
2017-Apr-20 08:30N 24°04' W 120°35'714.0
2017-Apr-20 08:00N 24°07' W 120°42'714.2
2017-Apr-20 07:30N 24°10' W 120°49'714.1
2017-Apr-20 07:00N 24°13' W 120°56'714.1
2017-Apr-20 06:30N 24°17' W 121°03'3714.2
2017-Apr-20 03:51N 24°34' W 121°39'615.0
2017-Apr-20 03:29N 24°36' W 121°45'1616.2
2017-Apr-20 02:31N 24°43' W 122°00'016.5
2017-Apr-20 02:30N 24°43' W 122°00'814.4
2017-Apr-20 01:56N 24°48' W 122°08'614.4
2017-Apr-20 01:30N 24°51' W 122°14'714.5
2017-Apr-20 01:00N 24°54' W 122°21'714.5
2017-Apr-20 00:30N 24°58' W 122°28'814.7
2017-Apr-19 23:59N 25°01' W 122°36'1114.8
2017-Apr-19 23:13N 25°07' W 122°47'314.8
2017-Apr-19 23:00N 25°08' W 122°50'  
Track history (hours):
 
Tides and Currents Weather Stations Pressure Air Temp Water Temp Dewpoint Dewpoint Depression Visibility Wind Speed Wind Dir Waves Ship Positions

Sincerity Ace

Last reported at 2017-Apr-20 11:24 UTC. Time now 2017-Apr-26 19:30 UTC.
Position N 23°44' W 119°55'.

Length 200 m; draft 9.3 m.

Type: Cargo ship. MMSI: 351690000.

Date/timePositionNaut miles runAvg speedWind from/ knotsBaromVisibWave heightAir tempDewpointWater temp
2017-Apr-20 11:24N 23°44' W 119°55'614.7
2017-Apr-20 11:00N 23°47' W 120°01'714.6
2017-Apr-20 10:30N 23°50' W 120°08'714.5
2017-Apr-20 10:00N 23°53' W 120°15'714.4
2017-Apr-20 09:30N 23°57' W 120°22'914.3
2017-Apr-20 08:51N 24°01' W 120°31'514.3
2017-Apr-20 08:30N 24°04' W 120°35'714.0
2017-Apr-20 08:00N 24°07' W 120°42'714.2
2017-Apr-20 07:30N 24°10' W 120°49'714.1
2017-Apr-20 07:00N 24°13' W 120°56'714.1
2017-Apr-20 06:30N 24°17' W 121°03'3714.2
2017-Apr-20 03:51N 24°34' W 121°39'615.0
2017-Apr-20 03:29N 24°36' W 121°45'1616.2
2017-Apr-20 02:31N 24°43' W 122°00'016.5
2017-Apr-20 02:30N 24°43' W 122°00'814.4
2017-Apr-20 01:56N 24°48' W 122°08'614.4
2017-Apr-20 01:30N 24°51' W 122°14'714.5
2017-Apr-20 01:00N 24°54' W 122°21'714.5
2017-Apr-20 00:30N 24°58' W 122°28'814.7
2017-Apr-19 23:59N 25°01' W 122°36'1114.8
2017-Apr-19 23:13N 25°07' W 122°47'314.8
2017-Apr-19 23:00N 25°08' W 122°50'  

Dump ship's entire track history